createdAt,value
2018-11-20T00:02:50.819Z,4.57
2018-11-20T00:05:37.981Z,4.56
2018-11-20T00:08:26.263Z,4.56
2018-11-20T00:11:20.411Z,4.59
2018-11-20T00:14:07.786Z,4.59
2018-11-20T00:16:56.058Z,4.61
2018-11-20T00:19:44.332Z,4.61
2018-11-20T00:22:43.285Z,4.61
2018-11-20T00:25:43.811Z,4.62
2018-11-20T00:28:38.062Z,4.62
2018-11-20T00:31:17.857Z,4.61
2018-11-20T00:34:04.840Z,4.58
2018-11-20T00:37:08.130Z,4.60
2018-11-20T00:39:56.512Z,4.61
2018-11-20T00:42:43.550Z,4.61
2018-11-20T00:45:30.625Z,4.60
2018-11-20T00:48:34.015Z,4.56
2018-11-20T00:51:21.328Z,4.53
2018-11-20T00:54:12.357Z,4.50
2018-11-20T00:57:04.975Z,4.50
2018-11-20T01:00:17.655Z,4.50
2018-11-20T01:03:05.094Z,4.52
2018-11-20T01:05:51.940Z,4.51
2018-11-20T01:08:43.204Z,4.50
2018-11-20T01:11:31.492Z,4.49
2018-11-20T01:14:34.955Z,4.47
2018-11-20T01:17:32.922Z,4.45
2018-11-20T01:20:19.998Z,4.39
2018-11-20T01:23:14.735Z,4.35
2018-11-20T01:26:01.520Z,4.36
2018-11-20T01:28:49.796Z,4.32
2018-11-20T01:31:50.044Z,4.32
2018-11-20T01:34:37.159Z,4.33
2018-11-20T01:37:24.214Z,4.33
2018-11-20T01:40:00.376Z,4.34
2018-11-20T01:43:03.886Z,4.33
2018-11-20T01:46:07.206Z,4.27
2018-11-20T01:49:07.475Z,4.26
2018-11-20T01:52:04.458Z,4.24
2018-11-20T01:54:59.068Z,4.21
2018-11-20T01:58:02.528Z,4.16
2018-11-20T02:00:48.992Z,4.13
2018-11-20T02:03:48.981Z,4.12
2018-11-20T02:06:37.264Z,4.10
2018-11-20T02:09:27.146Z,4.11
2018-11-20T02:12:20.140Z,4.11
2018-11-20T02:15:20.668Z,4.06
2018-11-20T02:18:32.044Z,4.03
2018-11-20T02:21:20.920Z,4.02
2018-11-20T02:23:59.993Z,4.05
2018-11-20T02:27:00.669Z,4.07
2018-11-20T02:29:47.483Z,4.06
2018-11-20T02:32:34.318Z,4.04
2018-11-20T02:35:25.335Z,4.04
2018-11-20T02:38:09.691Z,4.03
2018-11-20T02:40:57.680Z,3.98
2018-11-20T02:43:47.077Z,3.96
2018-11-20T02:46:29.353Z,3.96
2018-11-20T02:49:10.249Z,3.95
2018-11-20T02:52:00.227Z,3.94
2018-11-20T02:54:51.505Z,3.96
2018-11-20T02:57:44.745Z,3.97
2018-11-20T03:00:45.014Z,3.97
2018-11-20T03:03:25.124Z,3.94
2018-11-20T03:06:28.379Z,3.91
2018-11-20T03:09:28.669Z,3.92
2018-11-20T03:12:15.543Z,3.97
2018-11-20T03:15:02.505Z,4.02
2018-11-20T03:18:48.773Z,4.11
2018-11-20T03:21:23.837Z,4.04
2018-11-20T03:24:26.598Z,4.05
2018-11-20T03:27:14.065Z,4.09
2018-11-20T03:31:00.744Z,4.16
2018-11-20T03:33:49.984Z,4.23
2018-11-20T03:36:36.503Z,4.24
2018-11-20T03:39:30.151Z,4.25
2018-11-20T03:42:06.964Z,4.28
2018-11-20T03:44:51.850Z,4.28
2018-11-20T03:47:39.340Z,4.28
2018-11-20T03:50:39.078Z,4.27
2018-11-20T03:53:26.530Z,4.30
2018-11-20T03:56:19.752Z,4.28
2018-11-20T03:59:13.092Z,4.31
2018-11-20T04:01:59.337Z,4.32
2018-11-20T04:04:37.596Z,4.33
2018-11-20T04:07:37.533Z,4.25
2018-11-20T04:10:23.640Z,4.25
2018-11-20T04:13:01.201Z,4.29
2018-11-20T04:15:55.172Z,4.34
2018-11-20T04:18:43.491Z,4.31
2018-11-20T04:21:36.710Z,4.35
2018-11-20T04:24:33.783Z,4.40
2018-11-20T04:27:21.017Z,4.43
2018-11-20T04:30:54.637Z,4.39
2018-11-20T04:34:11.451Z,4.39
2018-11-20T04:37:04.899Z,4.39
2018-11-20T04:39:40.972Z,4.40
2018-11-20T04:42:34.171Z,4.41
2018-11-20T04:45:20.216Z,4.42
2018-11-20T04:48:05.028Z,4.42
2018-11-20T04:51:07.764Z,4.38
2018-11-20T04:53:46.632Z,4.37
2018-11-20T04:56:32.713Z,4.39
2018-11-20T04:59:29.243Z,4.42
2018-11-20T05:02:16.728Z,4.43
2018-11-20T05:05:07.246Z,4.46
2018-11-20T05:08:06.761Z,4.48
2018-11-20T05:10:46.115Z,4.48
2018-11-20T05:13:38.899Z,4.50
2018-11-20T05:16:35.424Z,4.51
2018-11-20T05:19:21.905Z,4.54
2018-11-20T05:22:18.545Z,4.54
2018-11-20T05:25:15.010Z,4.52
2018-11-20T05:28:01.295Z,4.51
2018-11-20T05:32:09.564Z,4.60
2018-11-20T05:34:53.475Z,4.57
2018-11-20T05:37:59.168Z,4.59
2018-11-20T05:40:52.236Z,4.63
2018-11-20T05:43:44.225Z,4.68
2018-11-20T05:46:31.935Z,4.69
2018-11-20T05:49:19.437Z,4.71
2018-11-20T05:52:12.301Z,4.72
2018-11-20T05:55:15.172Z,4.74
2018-11-20T05:58:11.655Z,4.76
2018-11-20T06:04:22.829Z,4.81
2018-11-20T06:07:16.595Z,4.82
2018-11-20T06:10:10.382Z,4.84
2018-11-20T06:12:56.766Z,4.87
2018-11-20T06:15:42.857Z,4.91
2018-11-20T06:18:28.739Z,4.93
2018-11-20T06:21:16.234Z,4.95
2018-11-20T06:24:05.651Z,4.96
2018-11-20T06:27:08.538Z,4.97
2018-11-20T06:30:04.824Z,4.98
2018-11-20T06:32:52.342Z,5.01
2018-11-20T06:35:45.728Z,4.98
2018-11-20T06:38:33.197Z,4.98
2018-11-20T06:41:28.753Z,4.95
2018-11-20T06:44:28.461Z,4.96
2018-11-20T06:47:23.556Z,4.96
2018-11-20T06:50:19.901Z,4.95
2018-11-20T06:53:19.651Z,4.97
2018-11-20T06:56:13.628Z,4.96
2018-11-20T06:59:09.548Z,4.98
2018-11-20T07:02:00.119Z,4.97
2018-11-20T07:04:46.196Z,4.95
2018-11-20T07:07:32.546Z,4.93
2018-11-20T07:10:37.863Z,4.92
2018-11-20T07:13:35.859Z,4.89
2018-11-20T07:16:44.766Z,4.86
2018-11-20T07:19:38.228Z,4.88
2018-11-20T07:25:46.612Z,4.94
2018-11-20T07:28:31.774Z,4.96
2018-11-20T07:31:37.848Z,4.94
2018-11-20T07:34:43.635Z,4.90
2018-11-20T07:37:31.193Z,4.92
2018-11-20T07:40:33.603Z,4.90
2018-11-20T07:43:24.035Z,4.90
2018-11-20T07:46:17.635Z,4.91
2018-11-20T07:49:03.793Z,4.90
2018-11-20T07:52:03.317Z,4.91
2018-11-20T07:54:49.602Z,4.90
2018-11-20T07:57:35.973Z,4.92
2018-11-20T08:00:23.087Z,4.91
2018-11-20T08:03:16.580Z,4.92
2018-11-20T08:06:02.871Z,4.93
2018-11-20T08:08:53.214Z,4.93
2018-11-20T08:11:46.779Z,4.94
2018-11-20T08:14:39.201Z,4.94
2018-11-20T08:17:17.007Z,4.96
2018-11-20T08:20:03.007Z,4.96
2018-11-20T08:22:56.296Z,4.95
2018-11-20T08:25:53.178Z,4.99
2018-11-20T08:28:39.266Z,4.98
2018-11-20T08:31:45.268Z,4.99
2018-11-20T08:34:41.632Z,5.04
2018-11-20T08:37:30.209Z,5.03
2018-11-20T08:40:19.282Z,5.00
2018-11-20T08:43:06.954Z,5.02
2018-11-20T08:45:57.104Z,5.06
2018-11-20T08:48:44.603Z,5.06
2018-11-20T08:51:30.837Z,5.08
2018-11-20T08:54:36.502Z,5.11
2018-11-20T08:57:38.819Z,5.08
2018-11-20T09:00:32.811Z,5.06
2018-11-20T09:03:18.976Z,5.08
2018-11-20T09:06:06.368Z,5.12
2018-11-20T09:09:09.269Z,5.11
2018-11-20T09:11:58.476Z,5.11
2018-11-20T09:14:44.618Z,5.16
2018-11-20T09:17:30.883Z,5.19
2018-11-20T09:20:17.572Z,5.21
2018-11-20T09:23:04.972Z,5.19
2018-11-20T09:25:59.034Z,5.20
2018-11-20T09:28:36.720Z,5.24
2018-11-20T09:31:23.043Z,5.24
2018-11-20T09:34:16.746Z,5.25
2018-11-20T09:37:13.198Z,5.29
2018-11-20T09:40:07.705Z,5.30
2018-11-20T09:42:46.861Z,5.30
2018-11-20T09:45:59.991Z,5.32
2018-11-20T09:48:53.346Z,5.34
2018-11-20T09:51:43.713Z,5.33
2018-11-20T09:54:24.821Z,5.36
2018-11-20T09:57:17.221Z,5.39
2018-11-20T10:00:07.613Z,5.42
2018-11-20T10:02:56.773Z,5.39
2018-11-20T10:05:46.304Z,5.45
2018-11-20T10:08:30.503Z,5.46
2018-11-20T10:11:33.406Z,5.46
2018-11-20T10:14:30.264Z,5.48
2018-11-20T10:17:35.787Z,5.51
2018-11-20T10:20:19.991Z,5.54
2018-11-20T10:23:12.247Z,5.58
2018-11-20T10:25:58.746Z,5.60
2018-11-20T10:28:45.021Z,5.65
2018-11-20T10:31:47.009Z,5.64
2018-11-20T10:34:46.753Z,5.65
2018-11-20T10:37:45.910Z,5.66
2018-11-20T10:40:32.574Z,5.69
2018-11-20T10:43:24.586Z,5.76
2018-11-20T10:46:24.231Z,5.80
2018-11-20T10:49:26.985Z,5.83
2018-11-20T10:52:29.865Z,5.88
2018-11-20T10:55:16.031Z,5.90
2018-11-20T10:57:52.583Z,5.94
2018-11-20T11:00:39.121Z,5.99
2018-11-20T11:03:44.978Z,6.03
2018-11-20T11:06:31.898Z,6.10
2018-11-20T11:09:22.406Z,6.16
2018-11-20T11:12:16.203Z,6.21
2018-11-20T11:15:09.215Z,6.26
2018-11-20T11:18:17.597Z,6.31
2018-11-20T11:21:14.350Z,6.37
2018-11-20T11:24:14.045Z,6.41
2018-11-20T11:27:00.234Z,6.42
2018-11-20T11:30:06.015Z,6.42
2018-11-20T11:33:31.391Z,6.45
2018-11-20T11:36:17.982Z,6.41
2018-11-20T11:39:27.882Z,6.41
2018-11-20T11:42:15.329Z,6.47
2018-11-20T11:45:35.184Z,6.50
2018-11-20T11:48:34.799Z,6.51
2018-11-20T11:51:27.851Z,6.53
2018-11-20T11:54:12.738Z,6.52
2018-11-20T11:57:18.501Z,6.53
2018-11-20T12:00:14.987Z,6.55
2018-11-20T12:09:01.929Z,6.57
2018-11-20T12:11:56.536Z,6.58
2018-11-20T12:14:42.756Z,6.60
2018-11-20T12:17:29.133Z,6.61
2018-11-20T12:20:15.436Z,6.62
2018-11-20T12:23:01.354Z,6.61
2018-11-20T12:25:51.673Z,6.58
2018-11-20T12:28:51.090Z,6.57
2018-11-20T12:31:44.302Z,6.57
2018-11-20T12:34:31.462Z,6.54
2018-11-20T12:37:31.121Z,6.60
2018-11-20T12:40:18.183Z,6.56
2018-11-20T12:43:21.051Z,6.56
2018-11-20T12:46:13.176Z,6.58
2018-11-20T12:49:19.092Z,6.60
2018-11-20T12:52:07.361Z,6.62
2018-11-20T12:54:53.703Z,6.62
2018-11-20T12:57:45.920Z,6.62
2018-11-20T13:00:35.224Z,6.62
2018-11-20T13:03:21.442Z,6.63
2018-11-20T13:06:07.503Z,6.62
2018-11-20T13:08:53.981Z,6.62
2018-11-20T13:11:56.415Z,6.64
2018-11-20T13:14:42.422Z,6.61
2018-11-20T13:17:37.965Z,6.62
2018-11-20T13:20:36.474Z,6.62
2018-11-20T13:23:21.573Z,6.60
2018-11-20T13:26:15.020Z,6.56
2018-11-20T13:29:01.143Z,6.53
2018-11-20T13:31:47.447Z,6.52
2018-11-20T13:34:40.941Z,6.52
2018-11-20T13:37:28.439Z,6.49
2018-11-20T13:40:10.492Z,6.45
2018-11-20T13:43:04.249Z,6.47
2018-11-20T13:45:53.791Z,6.52
2018-11-20T13:48:57.648Z,6.55
2018-11-20T13:51:57.448Z,6.58
2018-11-20T13:54:44.969Z,6.55
2018-11-20T13:57:35.034Z,6.54
2018-11-20T14:00:14.987Z,6.48
2018-11-20T14:03:01.369Z,6.46
2018-11-20T14:06:01.973Z,6.43
2018-11-20T14:09:10.946Z,6.39
2018-11-20T14:11:53.874Z,6.39
2018-11-20T14:14:45.136Z,6.42
2018-11-20T14:17:43.401Z,6.41
2018-11-20T14:20:35.497Z,6.45
2018-11-20T14:23:29.292Z,6.45
2018-11-20T14:26:19.552Z,6.45
2018-11-20T14:29:25.101Z,6.42
2018-11-20T14:32:24.965Z,6.40
2018-11-20T14:35:01.313Z,6.37
2018-11-20T14:37:47.831Z,6.39
2018-11-20T14:40:34.003Z,6.42
2018-11-20T14:43:33.571Z,6.43
2018-11-20T14:46:19.698Z,6.45
2018-11-20T14:49:29.307Z,6.45
2018-11-20T14:52:24.492Z,6.46
2018-11-20T14:55:21.130Z,6.46
2018-11-20T14:58:07.135Z,6.44
2018-11-20T15:00:53.179Z,6.43
2018-11-20T15:03:45.360Z,6.43
2018-11-20T15:06:31.352Z,6.43
2018-11-20T15:09:33.977Z,6.41
2018-11-20T15:12:12.697Z,6.42
2018-11-20T15:15:00.164Z,6.39
2018-11-20T15:18:03.249Z,6.37
2018-11-20T15:20:49.555Z,6.36
2018-11-20T15:23:37.073Z,6.40
2018-11-20T15:26:33.571Z,6.38
2018-11-20T15:29:21.282Z,6.36
2018-11-20T15:32:11.868Z,6.37
2018-11-20T15:34:58.184Z,6.37
2018-11-20T15:37:48.771Z,6.39
2018-11-20T15:40:51.428Z,6.37
2018-11-20T15:43:37.397Z,6.34
2018-11-20T15:46:24.186Z,6.33
2018-11-20T15:49:34.976Z,6.36
2018-11-20T15:52:07.196Z,6.36
2018-11-20T15:55:07.019Z,6.39
2018-11-20T15:58:00.406Z,6.39
2018-11-20T16:00:45.087Z,6.38
2018-11-20T16:03:31.311Z,6.36
2018-11-20T16:06:07.150Z,6.34
2018-11-20T16:09:06.607Z,6.31
2018-11-20T16:12:05.936Z,6.29
2018-11-20T16:15:02.271Z,6.29
2018-11-20T16:17:48.472Z,6.33
2018-11-20T16:21:14.162Z,6.29
2018-11-20T16:24:09.098Z,6.26
2018-11-20T16:26:55.144Z,6.24
2018-11-20T16:29:48.309Z,6.21
2018-11-20T16:32:34.898Z,6.23
2018-11-20T16:35:21.226Z,6.25
2018-11-20T16:37:57.169Z,6.27
2018-11-20T16:40:59.625Z,6.28
2018-11-20T16:43:47.129Z,6.28
2018-11-20T16:46:59.088Z,6.29
2018-11-20T16:49:52.500Z,6.29
2018-11-20T16:52:45.065Z,6.28
2018-11-20T16:55:30.203Z,6.29
2018-11-20T16:58:17.814Z,6.28
2018-11-20T17:01:05.319Z,6.24
2018-11-20T17:03:46.954Z,6.23
2018-11-20T17:06:43.113Z,6.15
2018-11-20T17:09:48.880Z,6.16
2018-11-20T17:12:45.234Z,6.13
2018-11-20T17:15:31.246Z,6.13
2018-11-20T17:18:20.542Z,6.13
2018-11-20T17:21:06.717Z,6.13
2018-11-20T17:24:16.673Z,6.12
2018-11-20T17:27:02.993Z,6.08
2018-11-20T17:29:50.669Z,6.11
2018-11-20T17:32:47.171Z,5.99
2018-11-20T17:35:39.768Z,5.99
2018-11-20T17:38:42.134Z,6.08
2018-11-20T17:41:32.839Z,6.08
2018-11-20T17:44:23.150Z,6.07
2018-11-20T17:47:19.893Z,6.08
2018-11-20T17:50:03.686Z,6.08
2018-11-20T17:52:53.155Z,6.07
2018-11-20T17:55:40.647Z,6.05
2018-11-20T17:58:21.462Z,6.01
2018-11-20T18:01:03.972Z,6.01
2018-11-20T18:03:50.458Z,6.03
2018-11-20T18:06:36.840Z,6.05
2018-11-20T18:09:26.171Z,6.03
2018-11-20T18:12:12.657Z,6.03
2018-11-20T18:14:59.262Z,5.98
2018-11-20T18:17:51.789Z,5.97
2018-11-20T18:20:40.689Z,5.99
2018-11-20T18:23:34.015Z,5.98
2018-11-20T18:26:20.480Z,5.98
2018-11-20T18:29:32.521Z,5.98
2018-11-20T18:32:18.831Z,5.94
2018-11-20T18:35:09.681Z,5.93
2018-11-20T18:38:03.379Z,5.92
2018-11-20T18:41:05.936Z,5.91
2018-11-20T18:43:52.075Z,5.88
2018-11-20T18:46:48.851Z,5.89
2018-11-20T18:49:48.494Z,5.91
2018-11-20T18:52:31.530Z,5.90
2018-11-20T18:55:22.405Z,5.87
2018-11-20T18:58:12.637Z,5.85
2018-11-20T19:00:59.002Z,5.91
2018-11-20T19:03:49.563Z,5.88
2018-11-20T19:06:35.867Z,5.89
2018-11-20T19:12:10.654Z,5.87
2018-11-20T19:14:56.994Z,5.87
2018-11-20T19:17:38.560Z,5.87
2018-11-20T19:20:29.335Z,5.84
2018-11-20T19:23:22.787Z,5.80
2018-11-20T19:26:28.363Z,5.80
2018-11-20T19:29:24.997Z,5.79
2018-11-20T19:32:09.573Z,5.78
2018-11-20T19:35:00.167Z,5.80
2018-11-20T19:38:06.121Z,5.80
2018-11-20T19:40:52.095Z,5.79
2018-11-20T19:43:38.460Z,5.79
2018-11-20T19:46:30.359Z,5.78
2018-11-20T19:49:14.085Z,5.76
2018-11-20T19:52:07.348Z,5.74
2018-11-20T19:54:57.420Z,5.75
2018-11-20T19:57:44.963Z,5.76
2018-11-20T20:00:50.660Z,5.76
2018-11-20T20:03:41.007Z,5.75
2018-11-20T20:06:49.719Z,5.78
2018-11-20T20:09:46.135Z,5.77
2018-11-20T20:12:36.681Z,5.76
2018-11-20T20:15:30.622Z,5.76
2018-11-20T20:18:24.096Z,5.76
2018-11-20T20:21:10.154Z,5.75
2018-11-20T20:23:48.017Z,5.74
2018-11-20T20:26:34.446Z,5.74
2018-11-20T20:29:19.672Z,5.74
2018-11-20T20:31:58.539Z,5.75
2018-11-20T20:34:48.626Z,5.76
2018-11-20T20:37:51.180Z,5.74
2018-11-20T20:40:37.240Z,5.77
2018-11-20T20:43:23.649Z,5.78
2018-11-20T20:46:09.884Z,5.77
2018-11-20T20:48:58.246Z,5.78
2018-11-20T20:51:45.941Z,5.77
2018-11-20T20:54:32.186Z,5.76
2018-11-20T20:57:28.832Z,5.74
2018-11-20T21:00:14.996Z,5.71
2018-11-20T21:03:17.848Z,5.67
2018-11-20T21:06:36.412Z,5.61
2018-11-20T21:09:36.010Z,5.55
2018-11-20T21:12:38.945Z,5.47
2018-11-20T21:15:25.711Z,5.41
2018-11-20T21:18:22.554Z,5.38
2018-11-20T21:21:25.916Z,5.37
2018-11-20T21:24:19.388Z,5.31
2018-11-20T21:27:06.923Z,5.27
2018-11-20T21:30:09.856Z,5.20
2018-11-20T21:33:16.731Z,5.17
2018-11-20T21:36:04.230Z,5.14
2018-11-20T21:38:50.808Z,5.17
2018-11-20T21:41:51.500Z,5.14
2018-11-20T21:44:38.215Z,5.12
2018-11-20T21:47:24.610Z,5.06
2018-11-20T21:50:12.180Z,5.06
2018-11-20T21:53:00.228Z,5.05
2018-11-20T21:55:49.660Z,5.03
2018-11-20T21:58:36.043Z,4.97
2018-11-20T22:01:24.742Z,4.94
2018-11-20T22:04:11.336Z,4.91
2018-11-20T22:07:01.608Z,4.91
2018-11-20T22:10:00.919Z,4.87
2018-11-20T22:12:47.110Z,4.86
2018-11-20T22:15:27.738Z,4.87
2018-11-20T22:18:40.435Z,4.87
2018-11-20T22:21:23.093Z,4.88
2018-11-20T22:24:10.716Z,4.94
2018-11-20T22:26:58.450Z,4.97
2018-11-20T22:30:00.809Z,4.98
2018-11-20T22:32:51.403Z,5.02
2018-11-20T22:35:42.083Z,5.05
2018-11-20T22:38:38.568Z,5.05
2018-11-20T22:41:29.995Z,5.10
2018-11-20T22:44:16.369Z,5.12
2018-11-20T22:47:02.503Z,5.14
2018-11-20T22:49:50.005Z,5.13
2018-11-20T22:52:55.743Z,5.16
2018-11-20T22:55:42.227Z,5.15
2018-11-20T22:58:27.567Z,5.17
2018-11-20T23:01:07.740Z,5.18
2018-11-20T23:03:58.401Z,5.19
2018-11-20T23:06:43.531Z,5.20
2018-11-20T23:09:12.421Z,5.21
2018-11-20T23:11:41.308Z,5.23
2018-11-20T23:14:09.750Z,5.22
2018-11-20T23:16:38.316Z,5.25
2018-11-20T23:19:06.921Z,5.25
2018-11-20T23:21:35.353Z,5.25
2018-11-20T23:24:03.897Z,5.25
2018-11-20T23:26:32.533Z,5.25
2018-11-20T23:29:01.033Z,5.25
2018-11-20T23:31:31.813Z,5.25
2018-11-20T23:34:00.264Z,5.26
2018-11-20T23:36:28.709Z,5.27
2018-11-20T23:39:05.002Z,5.27
2018-11-20T23:41:33.587Z,5.27
2018-11-20T23:44:08.071Z,5.31
2018-11-20T23:46:42.343Z,5.32
2018-11-20T23:49:17.511Z,5.33
2018-11-20T23:51:42.231Z,5.34
2018-11-20T23:54:25.855Z,5.35
2018-11-20T23:56:54.347Z,5.36
2018-11-20T23:59:31.006Z,5.30
